METAR Data
IDs: Format: Raw Decoded Include TAF

Data at: 1401 UTC 14 Dec 2019

KFSO 141355Z AUTO 34003KT 1 1/2SM -RA OVC030 05/05 A2961 RMK AO2 VIS 1V2 1/2 T00540047
KFSO 141335Z AUTO 00000KT 2 1/2SM RA SCT032 SCT044 OVC070 06/05 A2963 RMK AO2 T00550049
KFSO 141316Z AUTO 33003KT 2SM RA SCT045 SCT060 OVC070 06/05 A2964 RMK AO2 VIS 1V5 T00560050
KFSO 141255Z AUTO 36003KT 5SM RA SCT060 OVC070 06/05 A2966 RMK AO2 T00600053
KFSO 141236Z AUTO 36003KT 4SM -RA BKN050 OVC070 06/05 A2968 RMK AO2 T00560050
KFSO 141216Z AUTO 36003KT 2 1/2SM RA BKN060 OVC070 04/04 A2970 RMK AO2 T00430037
KFSO 141155Z AUTO 03003KT 7SM DZ BKN060 OVC090 05/04 A2971 RMK AO2 T00490043 10065 20032
KFSO 141136Z AUTO 07003KT 10SM RA BKN070 BKN080 OVC090 06/06 A2973 RMK AO2 T00630056
KFSO 141115Z AUTO 07005KT 10SM DZ SCT060 OVC070 06/06 A2975 RMK AO2 T00640057
KFSO 141056Z AUTO 10005KT 10SM DZ SCT060 OVC070 06/05 A2977 RMK AO2 T00590052
KFSO 141036Z AUTO 00000KT 1 1/4SM UP OVC060 04/03 A2979 RMK AO2 T00350030
KFSO 141015Z AUTO 00000KT 1 1/4SM UP BKN050 OVC070 04/03 A2981 RMK AO2 T00350030
KFSO 140956Z AUTO 00000KT 1 3/4SM UP OVC050 04/03 A2982 RMK AO2 T00380031
KFSO 140935Z AUTO 00000KT 1SM BR OVC050 03/03 A2984 RMK AO2 T00330026
KFSO 140916Z AUTO 00000KT 1 3/4SM BR SCT031 OVC050 04/03 A2986 RMK AO2 T00350028
KFSO 140855Z AUTO 00000KT 1 1/2SM BR SCT032 SCT039 OVC050 03/03 A2987 RMK AO2 T00340027
KFSO 140836Z AUTO 00000KT 2SM UP SCT018 BKN029 OVC034 04/03 A2989 RMK AO2 T00350029
KFSO 140815Z AUTO 00000KT 3SM UP SCT029 BKN035 OVC048 04/03 A2991 RMK AO2 T00350030
KFSO 140755Z AUTO 00000KT 5SM UP SCT038 BKN047 OVC060 04/03 A2993 RMK AO2 T00350028
KFSO 140736Z AUTO 00000KT 7SM SCT024 BKN048 OVC075 04/03 A2995 RMK AO2 T00370030
KFSO 140715Z AUTO 00000KT 7SM UP SCT026 SCT047 OVC060 04/03 A2996 RMK AO2 T00370030
KFSO 140656Z AUTO 16003KT 4SM UP SCT023 BKN032 OVC050 04/03 A2997 RMK AO2 T00370031
KFSO 140635Z AUTO 17004KT 10SM BKN030 BKN035 OVC050 04/03 A2998 RMK AO2 T00370031
KFSO 140616Z AUTO 17003KT 10SM SCT033 SCT043 OVC050 04/03 A2999 RMK AO2 T00350030
KFSO 140556Z AUTO 21003KT 10SM SCT043 BKN049 OVC075 04/03 A3001 RMK AO2 T00350028 10042 20031
KFSO 140535Z AUTO 00000KT 10SM SCT047 BKN055 OVC085 04/03 A3001 RMK AO2 T00350027
KFSO 140515Z AUTO 00000KT 10SM UP SCT045 BKN050 OVC075 04/03 A3002 RMK AO2 T00350027
KFSO 140456Z AUTO 00000KT 5SM BR SCT034 SCT044 OVC070 03/03 A3004 RMK AO2 T00320025 400661013
KFSO 140436Z AUTO 00000KT 4SM UP SCT030 BKN048 OVC055 03/03 A3005 RMK AO2 T00320026
KFSO 140416Z AUTO 00000KT 4SM UP OVC048 04/03 A3006 RMK AO2 T00350028
KFSO 140355Z AUTO 00000KT 7SM UP BKN050 OVC060 04/03 A3007 RMK AO2 T00360030
KFSO 140336Z AUTO 14003KT 7SM UP SCT041 BKN055 OVC070 04/03 A3008 RMK AO2 T00350029
KFSO 140316Z AUTO 15004KT 5SM UP SCT038 BKN043 OVC050 04/03 A3009 RMK AO2 T00350030
KFSO 140256Z AUTO 12005KT 5SM UP SCT033 OVC041 04/03 A3010 RMK AO2 T00350030
KFSO 140236Z AUTO 00000KT 4SM UP SCT030 BKN035 OVC048 04/03 A3011 RMK AO2 T00350028
KFSO 140215Z AUTO 15003KT 10SM UP OVC050 03/03 A3013 RMK AO2 T00330025
KFSO 140156Z AUTO 15004KT 10SM UP BKN050 OVC070 04/02 A3014 RMK AO2 T00350023
KFSO 140135Z AUTO 15004KT 10SM UP BKN021 OVC065 04/02 A3014 RMK AO2 T00360020
KFSO 140116Z AUTO 00000KT 10SM UP OVC021 04/02 A3015 RMK AO2 T00370017
KFSO 140055Z AUTO 15004KT 10SM BKN021 BKN032 OVC049 04/02 A3016 RMK AO2 T00400015
KFSO 140036Z AUTO 13004KT 10SM OVC023 04/01 A3017 RMK AO2 T00420012
KFSO 140015Z AUTO 00000KT 10SM SCT023 BKN060 OVC075 04/01 A3017 RMK AO2 T00370010
KFSO 132355Z AUTO 14005KT 10SM SCT060 BKN075 OVC120 04/01 A3018 RMK AO2 T00440012 10066 20042
KFSO 132336Z AUTO 17005KT 10SM SCT047 BKN055 BKN120 05/01 A3018 RMK AO2 T00480012
KFSO 132316Z AUTO 17006KT 10SM SCT049 SCT055 SCT120 05/01 A3019 RMK AO2 T00450010
KFSO 132256Z AUTO 19003KT 10SM SCT043 BKN049 05/01 A3020 RMK AO2 T00470010
KFSO 132236Z AUTO 19003KT 10SM BKN045 05/01 A3021 RMK AO2 T00470010
KFSO 132215Z AUTO 19005KT 10SM SCT041 05/01 A3022 RMK AO2 T00460009
KFSO 132156Z AUTO 17008KT 150V210 10SM SCT044 05/01 A3021 RMK AO2 T00460007
KFSO 132136Z AUTO 17008KT 10SM SCT044 05/01 A3022 RMK AO2 T00490005
KFSO 132115Z AUTO 18007G16KT 10SM CLR 05/00 A3022 RMK AO2 T00500002
KFSO 132056Z AUTO 18010G16KT 10SM SCT050 05/00 A3022 RMK AO2 T00510000
KFSO 132035Z AUTO 17011G19KT 160V220 10SM SCT055 05/00 A3023 RMK AO2 T00520000
KFSO 132016Z AUTO 18010G16KT 150V210 10SM SCT049 05/00 A3025 RMK AO2 T00541001
KFSO 131955Z AUTO 19010G18KT 10SM SCT049 06/00 A3024 RMK AO2 T00551005
KFSO 131936Z AUTO 17013G19KT 10SM CLR 06/M01 A3023 RMK AO2 T00571009
KFSO 131916Z AUTO 18010G17KT 10SM CLR 06/M01 A3024 RMK AO2 T00631010
KFSO 131855Z AUTO 19009G19KT 170V240 10SM CLR 07/M01 A3024 RMK AO2 T00651011
KFSO 131835Z AUTO 18011G19KT 10SM CLR 06/M01 A3025 RMK AO2 T00621015
KFSO 131815Z AUTO 19010G22KT 10SM CLR 06/M02 A3026 RMK AO2 T00641017
KFSO 131756Z AUTO 19010G20KT 10SM CLR 06/M02 A3028 RMK AO2 T00601024 10060 20001
KFSO 131736Z AUTO 19011G23KT 150V220 10SM CLR 05/M02 A3028 RMK AO2 T00531025
KFSO 131716Z AUTO 18011G17KT 10SM CLR 05/M03 A3029 RMK AO2 T00541026
KFSO 131636Z AUTO 18012G20KT 10SM CLR 05/M04 A3031 RMK AO2 T00501036
KFSO 131616Z AUTO 18009G20KT 10SM CLR 05/M04 A3032 RMK AO2 T00461042
KFSO 131556Z AUTO 18013G22KT 10SM CLR 04/M04 A3033 RMK AO2 T00421045
KFSO 131535Z AUTO 18014G21KT 10SM CLR 04/M05 A3034 RMK AO2 T00421047
KFSO 131516Z AUTO 18010G23KT 10SM CLR 04/M05 A3035 RMK AO2 T00401054
KFSO 131456Z AUTO 19012G24KT 10SM CLR 04/M06 A3034 RMK AO2 T00361058
KFSO 131436Z AUTO 18012G25KT 10SM CLR 03/M06 A3034 RMK AO2 T00311059
KFSO 131415Z AUTO 18010G20KT 160V220 10SM CLR 03/M06 A3035 RMK AO2 T00261061
KFSO 131356Z AUTO 17011G18KT 10SM CLR 02/M07 A3035 RMK AO2 T00211066
KFSO 131335Z AUTO 18010G15KT 10SM CLR 02/M07 A3036 RMK AO2 T00171070
KFSO 131315Z AUTO 19008G18KT 10SM CLR 01/M07 A3036 RMK AO2 T00101070
KFSO 131255Z AUTO 18011G20KT 10SM CLR 01/M07 A3036 RMK AO2 T00051075
KFSO 131235Z AUTO 18011G19KT 10SM CLR 00/M08 A3036 RMK AO2 T00041085
KFSO 131216Z AUTO 18011G20KT 10SM CLR 00/M09 A3036 RMK AO2 T00021088
KFSO 131155Z AUTO 18010G17KT 160V220 10SM CLR 00/M10 A3036 RMK AO2 T00011101 10005 21010
KFSO 131136Z AUTO 17010G24KT 150V210 10SM CLR 00/M10 A3036 RMK AO2 T00011105
KFSO 131115Z AUTO 18014G20KT 10SM SCT110 00/M11 A3035 RMK AO2 T00011107
KFSO 131055Z AUTO 18013G22KT 160V220 10SM BKN110 00/M11 A3035 RMK AO2 T00011110
KFSO 131036Z AUTO 17012G20KT 10SM OVC110 00/M11 A3035 RMK AO2 T00031112
KFSO 131015Z AUTO 19010G21KT 10SM OVC110 01/M12 A3036 RMK AO2 T00051118
KFSO 130956Z AUTO 18013G18KT 150V210 10SM BKN100 01/M12 A3036 RMK AO2 T00051118
KFSO 130936Z AUTO 19008G16KT 150V220 10SM BKN100 00/M12 A3037 RMK AO2 T00021120
KFSO 130915Z AUTO 19013G23KT 160V220 10SM OVC100 00/M12 A3038 RMK AO2 T00041119
KFSO 130855Z AUTO 18015G21KT 150V210 10SM OVC100 00/M12 A3037 RMK AO2 T00041119
KFSO 130835Z AUTO 18012G22KT 10SM OVC100 00/M12 A3039 RMK AO2 T00031116
KFSO 130815Z AUTO 18015G19KT 10SM OVC100 00/M12 A3040 RMK AO2 T00021116
KFSO 130755Z AUTO 18010G24KT 150V210 10SM OVC100 00/M12 A3041 RMK AO2 T00021116
KFSO 130736Z AUTO 17010G17KT 10SM OVC100 00/M11 A3041 RMK AO2 T00001115
KFSO 130716Z AUTO 17011G16KT 10SM OVC100 00/M12 A3042 RMK AO2 T00001116
KFSO 130655Z AUTO 17008G14KT 160V220 10SM OVC100 00/M12 A3043 RMK AO2 T10021116
KFSO 130636Z AUTO 19007G17KT 10SM BKN110 00/M11 A3044 RMK AO2 T10041115
KFSO 130615Z AUTO 17012G18KT 10SM CLR M01/M11 A3044 RMK AO2 T10071112
KFSO 130555Z AUTO 17012G17KT 10SM SCT100 M01/M11 A3045 RMK AO2 T10101110 11010 21060
KFSO 130535Z AUTO 17010G17KT 10SM BKN100 M01/M11 A3046 RMK AO2 T10121106
KFSO 130516Z AUTO 17010G18KT 10SM BKN100 M01/M11 A3047 RMK AO2 T10121107
KFSO 130455Z AUTO 17011G17KT 10SM OVC100 M01/M10 A3047 RMK AO2 T10131105 410131076
KFSO 130436Z AUTO 17009G15KT 150V210 10SM BKN090 BKN120 M01/M10 A3048 RMK AO2 T10141105
KFSO 130415Z AUTO 17010G16KT 10SM SCT100 BKN120 M01/M10 A3049 RMK AO2 T10151105
KFSO 130355Z AUTO 18009G15KT 10SM SCT095 BKN120 M02/M10 A3050 RMK AO2 T10171103
KFSO 130335Z AUTO 17009KT 10SM BKN100 BKN110 M02/M10 A3051 RMK AO2 T10201101
KFSO 130315Z AUTO 17007KT 10SM BKN100 M02/M09 A3051 RMK AO2 T10251095
KFSO 130255Z AUTO 16008G14KT 10SM SCT100 M03/M09 A3052 RMK AO2 T10331094
KFSO 130235Z AUTO 15009KT 10SM CLR M04/M10 A3053 RMK AO2 T10361099
KFSO 130216Z AUTO 15006KT 10SM CLR M04/M10 A3054 RMK AO2 T10381100